createdAt,value
2022-12-22T00:01:54.886Z,92.46
2022-12-22T00:04:41.541Z,93.35
2022-12-22T00:07:27.704Z,92.68
2022-12-22T00:10:13.409Z,93.35
2022-12-22T00:12:59.348Z,93.56
2022-12-22T00:15:45.537Z,93.90
2022-12-22T00:18:33.437Z,90.17
2022-12-22T00:21:19.308Z,90.85
2022-12-22T00:24:05.032Z,92.22
2022-12-22T00:26:52.253Z,90.12
2022-12-22T00:29:38.190Z,91.04
2022-12-22T00:32:24.832Z,91.13
2022-12-22T00:35:10.920Z,91.96
2022-12-22T00:37:56.836Z,92.19
2022-12-22T00:40:47.366Z,93.20
2022-12-22T00:43:33.766Z,92.81
2022-12-22T00:46:21.660Z,91.55
2022-12-22T00:49:08.133Z,91.38
2022-12-22T00:51:54.103Z,89.67
2022-12-22T00:54:40.981Z,92.68
2022-12-22T00:57:35.344Z,92.87
2022-12-22T01:00:22.819Z,94.02
2022-12-22T01:03:08.782Z,93.60
2022-12-22T01:05:54.878Z,95.01
2022-12-22T01:08:40.699Z,96.27
2022-12-22T01:11:26.880Z,95.28
2022-12-22T01:14:12.656Z,95.57
2022-12-22T01:16:58.576Z,93.57
2022-12-22T01:19:44.643Z,95.17
2022-12-22T01:22:32.013Z,92.57
2022-12-22T01:25:18.037Z,91.29
2022-12-22T01:28:03.933Z,91.73
2022-12-22T01:30:50.066Z,90.00
2022-12-22T01:33:35.937Z,90.73
2022-12-22T01:36:21.974Z,89.56
2022-12-22T01:39:07.883Z,87.59
2022-12-22T01:41:54.381Z,89.17
2022-12-22T01:44:40.209Z,89.44
2022-12-22T01:47:50.600Z,88.58
2022-12-22T01:50:38.198Z,87.65
2022-12-22T01:53:26.743Z,89.58
2022-12-22T01:56:13.190Z,89.01
2022-12-22T01:59:02.138Z,90.23
2022-12-22T02:01:49.179Z,89.43
2022-12-22T02:04:36.639Z,87.60
2022-12-22T02:07:46.571Z,88.84
2022-12-22T02:11:04.088Z,89.49
2022-12-22T02:14:12.542Z,87.52
2022-12-22T02:17:20.504Z,90.22
2022-12-22T02:20:21.644Z,89.67
2022-12-22T02:23:22.868Z,85.03
2022-12-22T02:26:36.540Z,88.29
2022-12-22T02:29:23.984Z,89.69
2022-12-22T02:32:09.953Z,87.95
2022-12-22T02:34:55.706Z,89.13
2022-12-22T02:37:49.345Z,87.15
2022-12-22T02:40:44.011Z,86.61
2022-12-22T02:43:36.006Z,84.30
2022-12-22T02:46:44.132Z,85.10
2022-12-22T02:49:51.249Z,85.06
2022-12-22T02:52:41.611Z,84.21
2022-12-22T02:55:27.518Z,84.18
2022-12-22T02:58:13.547Z,85.02
2022-12-22T03:00:59.355Z,85.37
2022-12-22T03:03:45.650Z,83.58
2022-12-22T03:06:31.748Z,83.22
2022-12-22T03:09:17.651Z,82.67
2022-12-22T03:12:03.587Z,83.58
2022-12-22T03:14:49.522Z,82.87
2022-12-22T03:17:35.378Z,82.99
2022-12-22T03:20:21.431Z,80.79
2022-12-22T03:23:07.538Z,85.04
2022-12-22T03:25:54.340Z,80.72
2022-12-22T03:28:26.620Z,83.22
2022-12-22T03:31:01.404Z,88.79
2022-12-22T03:33:29.670Z,83.86
2022-12-22T03:35:57.099Z,85.63
2022-12-22T03:38:24.499Z,82.88
2022-12-22T03:40:51.762Z,84.86
2022-12-22T03:43:38.280Z,82.70
2022-12-22T03:46:29.020Z,83.20
2022-12-22T03:49:12.749Z,82.57
2022-12-22T03:51:48.842Z,80.43
2022-12-22T03:54:23.548Z,79.52
2022-12-22T03:56:51.636Z,81.44
2022-12-22T03:59:19.334Z,82.88
2022-12-22T04:01:49.563Z,82.11
2022-12-22T04:04:18.528Z,85.40
2022-12-22T04:06:46.650Z,84.36
2022-12-22T04:09:14.304Z,84.78
2022-12-22T04:12:00.546Z,86.95
2022-12-22T04:14:33.546Z,83.19
2022-12-22T04:17:05.570Z,82.86
2022-12-22T04:19:33.177Z,85.17
2022-12-22T04:22:00.771Z,86.33
2022-12-22T04:24:28.060Z,81.81
2022-12-22T04:26:55.329Z,87.40
2022-12-22T04:29:22.597Z,82.55
2022-12-22T04:31:49.883Z,83.08
2022-12-22T04:34:17.097Z,84.99
2022-12-22T04:36:44.423Z,86.79
2022-12-22T04:39:11.667Z,86.00
2022-12-22T04:41:39.019Z,85.90
2022-12-22T04:44:06.590Z,85.02
2022-12-22T04:46:33.898Z,84.38
2022-12-22T04:49:01.293Z,86.60
2022-12-22T04:51:28.835Z,85.72
2022-12-22T04:53:56.305Z,85.92
2022-12-22T04:56:23.706Z,85.67
2022-12-22T04:58:51.012Z,88.38
2022-12-22T05:01:18.927Z,87.17
2022-12-22T05:03:47.045Z,85.56
2022-12-22T05:06:14.921Z,86.42
2022-12-22T05:08:42.470Z,86.47
2022-12-22T05:11:09.852Z,84.27
2022-12-22T05:13:37.213Z,83.90
2022-12-22T05:16:09.905Z,82.64
2022-12-22T05:18:38.121Z,82.77
2022-12-22T05:21:11.900Z,82.92
2022-12-22T05:23:39.323Z,84.64
2022-12-22T05:26:06.801Z,83.82
2022-12-22T05:28:34.186Z,82.55
2022-12-22T05:31:06.764Z,85.34
2022-12-22T05:33:34.833Z,84.06
2022-12-22T05:36:02.469Z,84.48
2022-12-22T05:38:29.778Z,85.25
2022-12-22T05:41:03.488Z,84.96
2022-12-22T05:43:33.066Z,83.17
2022-12-22T05:46:08.674Z,81.80
2022-12-22T05:48:38.971Z,82.00
2022-12-22T05:51:08.314Z,82.67
2022-12-22T05:53:36.586Z,83.90
2022-12-22T05:56:04.175Z,88.04
2022-12-22T05:58:31.418Z,87.61
2022-12-22T06:00:59.645Z,89.67
2022-12-22T06:03:27.972Z,93.71
2022-12-22T06:05:55.704Z,91.71
2022-12-22T06:08:23.574Z,91.64
2022-12-22T06:10:51.241Z,93.69
2022-12-22T06:13:18.519Z,94.96
2022-12-22T06:15:45.824Z,95.74
2022-12-22T06:18:13.576Z,97.02
2022-12-22T06:20:40.922Z,98.69
2022-12-22T06:23:08.360Z,98.88
2022-12-22T06:25:36.078Z,98.49
2022-12-22T06:28:03.779Z,98.40
2022-12-22T06:30:33.574Z,98.37
2022-12-22T06:33:01.592Z,99.41
2022-12-22T06:35:29.018Z,100.00
2022-12-22T06:37:56.565Z,98.76
2022-12-22T06:40:23.770Z,93.33
2022-12-22T06:43:10.271Z,96.38
2022-12-22T06:45:42.840Z,95.37
2022-12-22T06:48:11.425Z,94.26
2022-12-22T06:50:38.868Z,94.40
2022-12-22T06:53:07.000Z,96.03
2022-12-22T06:55:34.577Z,94.04
2022-12-22T06:58:02.571Z,93.75
2022-12-22T07:00:29.875Z,94.04
2022-12-22T07:02:57.388Z,95.21
2022-12-22T07:05:25.053Z,91.82
2022-12-22T07:07:52.944Z,94.74
2022-12-22T07:10:40.244Z,94.09
2022-12-22T07:13:19.367Z,94.50
2022-12-22T07:15:53.789Z,94.83
2022-12-22T07:18:27.501Z,93.86
2022-12-22T07:20:54.942Z,94.16
2022-12-22T07:23:22.291Z,95.24
2022-12-22T07:25:49.564Z,94.82
2022-12-22T07:28:20.662Z,94.98
2022-12-22T07:30:52.494Z,97.28
2022-12-22T07:33:19.923Z,94.25
2022-12-22T07:35:47.288Z,93.11
2022-12-22T07:38:14.688Z,92.72
2022-12-22T07:40:43.132Z,92.80
2022-12-22T07:43:11.565Z,89.17
2022-12-22T07:45:39.422Z,88.68
2022-12-22T07:48:26.751Z,88.61
2022-12-22T07:50:55.597Z,90.11
2022-12-22T07:53:22.841Z,90.55
2022-12-22T07:55:50.166Z,90.68
2022-12-22T07:58:17.418Z,87.74
2022-12-22T08:00:44.696Z,88.74
2022-12-22T08:03:12.108Z,88.92
2022-12-22T08:05:39.497Z,90.22
2022-12-22T08:08:07.798Z,88.72
2022-12-22T08:10:35.003Z,87.51
2022-12-22T08:13:02.410Z,87.83
2022-12-22T08:15:29.701Z,90.50
2022-12-22T08:17:57.082Z,87.52
2022-12-22T08:20:24.406Z,88.49
2022-12-22T08:22:51.943Z,85.26
2022-12-22T08:25:19.211Z,87.19
2022-12-22T08:27:51.729Z,87.69
2022-12-22T08:30:19.057Z,89.67
2022-12-22T08:32:49.069Z,87.61
2022-12-22T08:35:16.711Z,89.24
2022-12-22T08:37:45.666Z,91.35
2022-12-22T08:40:18.645Z,86.00
2022-12-22T08:42:47.099Z,85.56
2022-12-22T08:45:14.593Z,85.37
2022-12-22T08:47:42.775Z,85.07
2022-12-22T08:50:10.634Z,83.69
2022-12-22T08:52:38.328Z,86.23
2022-12-22T08:55:06.611Z,87.07
2022-12-22T08:57:34.006Z,87.70
2022-12-22T09:00:01.686Z,87.29
2022-12-22T09:02:29.094Z,87.43
2022-12-22T09:04:56.562Z,88.23
2022-12-22T09:07:23.882Z,88.47
2022-12-22T09:09:51.665Z,86.18
2022-12-22T09:12:19.007Z,85.28
2022-12-22T09:14:46.341Z,87.45
2022-12-22T09:17:13.572Z,86.88
2022-12-22T09:19:40.850Z,86.25
2022-12-22T09:22:09.886Z,84.72
2022-12-22T09:24:37.253Z,83.43
2022-12-22T09:27:06.638Z,83.40
2022-12-22T09:29:33.904Z,83.58
2022-12-22T09:32:01.188Z,84.14
2022-12-22T09:34:28.441Z,82.95
2022-12-22T09:36:55.769Z,83.63
2022-12-22T09:39:28.531Z,83.45
2022-12-22T09:41:57.844Z,84.44
2022-12-22T09:44:38.035Z,83.45
2022-12-22T09:47:10.219Z,83.38
2022-12-22T09:49:37.534Z,83.32
2022-12-22T09:52:05.177Z,83.35
2022-12-22T09:54:32.467Z,83.21
2022-12-22T09:57:00.135Z,82.88
2022-12-22T09:59:28.483Z,82.87
2022-12-22T10:02:11.205Z,82.66
2022-12-22T10:04:41.538Z,81.66
2022-12-22T10:07:29.012Z,81.83
2022-12-22T10:09:56.391Z,82.58
2022-12-22T10:12:26.017Z,82.38
2022-12-22T10:14:54.983Z,81.72
2022-12-22T10:17:33.393Z,82.21
2022-12-22T10:20:19.197Z,82.79
2022-12-22T10:22:48.806Z,81.34
2022-12-22T10:25:52.470Z,80.96
2022-12-22T10:28:24.434Z,81.11
2022-12-22T10:31:10.921Z,81.16
2022-12-22T10:33:45.896Z,81.54
2022-12-22T10:36:19.629Z,80.92
2022-12-22T10:39:13.196Z,81.56
2022-12-22T10:41:42.984Z,81.20
2022-12-22T10:44:21.392Z,80.90
2022-12-22T10:46:48.602Z,79.99
2022-12-22T10:49:24.453Z,79.87
2022-12-22T10:52:14.357Z,80.46
2022-12-22T10:54:44.676Z,80.62
2022-12-22T10:57:15.002Z,80.66
2022-12-22T11:00:02.229Z,80.87
2022-12-22T11:02:38.213Z,80.04
2022-12-22T11:05:11.854Z,80.22
2022-12-22T11:07:41.561Z,80.14
2022-12-22T11:10:18.645Z,80.07
2022-12-22T11:13:02.467Z,79.97
2022-12-22T11:15:34.239Z,79.96
2022-12-22T11:18:01.466Z,80.12
2022-12-22T11:20:45.934Z,79.37
2022-12-22T11:23:25.458Z,80.10
2022-12-22T11:26:11.277Z,80.21
2022-12-22T11:28:50.624Z,79.77
2022-12-22T11:31:23.718Z,78.68
2022-12-22T11:33:51.056Z,78.92
2022-12-22T11:36:28.068Z,78.38
2022-12-22T11:39:01.601Z,79.23
2022-12-22T11:41:46.992Z,79.43
2022-12-22T11:44:42.295Z,79.78
2022-12-22T11:47:25.466Z,79.78
2022-12-22T11:49:55.948Z,79.54
2022-12-22T11:52:48.427Z,79.80
2022-12-22T11:55:34.758Z,79.25
2022-12-22T11:58:21.791Z,79.13
2022-12-22T12:01:14.955Z,78.46
2022-12-22T12:04:06.065Z,78.14
2022-12-22T12:06:45.941Z,76.30
2022-12-22T12:09:28.258Z,76.94
2022-12-22T12:12:05.054Z,76.84
2022-12-22T12:14:34.891Z,77.15
2022-12-22T12:17:28.555Z,77.18
2022-12-22T12:20:20.282Z,77.80
2022-12-22T12:22:47.576Z,77.36
2022-12-22T12:25:46.201Z,77.23
2022-12-22T12:28:38.199Z,77.43
2022-12-22T12:31:06.964Z,78.00
2022-12-22T12:33:37.627Z,77.93
2022-12-22T12:36:47.847Z,78.10
2022-12-22T12:39:24.142Z,78.23
2022-12-22T12:41:51.343Z,78.66
2022-12-22T12:44:22.204Z,77.77
2022-12-22T12:46:55.293Z,76.79
2022-12-22T12:49:34.763Z,77.35
2022-12-22T12:52:08.550Z,78.05
2022-12-22T12:54:40.614Z,78.35
2022-12-22T12:57:07.968Z,78.44
2022-12-22T12:59:41.201Z,78.76
2022-12-22T13:02:26.986Z,79.67
2022-12-22T13:05:06.762Z,80.92
2022-12-22T13:08:16.558Z,82.72
2022-12-22T13:11:31.147Z,83.87
2022-12-22T13:14:03.639Z,83.95
2022-12-22T13:16:33.693Z,84.29
2022-12-22T13:19:03.051Z,84.97
2022-12-22T13:21:54.937Z,85.76
2022-12-22T13:27:14.632Z,87.43
2022-12-22T13:29:45.130Z,85.81
2022-12-22T13:30:51.198Z,85.99
2022-12-22T13:32:33.394Z,85.52
2022-12-22T13:35:32.005Z,87.09
2022-12-22T13:38:00.977Z,87.13
2022-12-22T13:40:31.412Z,87.37
2022-12-22T13:43:11.763Z,88.27
2022-12-22T13:45:40.228Z,88.67
2022-12-22T13:48:13.948Z,88.88
2022-12-22T13:51:01.495Z,89.00
2022-12-22T13:54:07.969Z,89.09
2022-12-22T13:56:46.292Z,88.84
2022-12-22T13:59:35.389Z,88.56
2022-12-22T14:02:08.476Z,88.89
2022-12-22T14:04:37.305Z,89.20
2022-12-22T14:07:14.624Z,90.71
2022-12-22T14:09:50.361Z,90.10
2022-12-22T14:12:24.354Z,90.35
2022-12-22T14:14:53.428Z,90.09
2022-12-22T14:17:23.517Z,90.63
2022-12-22T14:19:52.574Z,91.67
2022-12-22T14:22:24.538Z,92.31
2022-12-22T14:24:57.535Z,91.94
2022-12-22T14:27:39.447Z,91.68
2022-12-22T14:30:19.146Z,92.37
2022-12-22T14:32:54.468Z,92.38
2022-12-22T14:35:22.793Z,92.67
2022-12-22T14:37:52.922Z,92.89
2022-12-22T14:40:30.443Z,93.45
2022-12-22T14:42:59.106Z,93.12
2022-12-22T14:45:26.903Z,93.64
2022-12-22T14:47:55.450Z,94.22
2022-12-22T14:50:27.901Z,94.80
2022-12-22T14:52:57.442Z,95.35
2022-12-22T14:55:36.580Z,94.95
2022-12-22T14:58:03.784Z,94.49
2022-12-22T15:00:42.618Z,94.22
2022-12-22T15:03:25.395Z,93.63
2022-12-22T15:05:52.992Z,93.68
2022-12-22T15:08:42.715Z,95.07
2022-12-22T15:11:12.405Z,94.53
2022-12-22T15:13:39.874Z,94.39
2022-12-22T15:16:10.099Z,94.30
2022-12-22T15:18:37.488Z,95.29
2022-12-22T15:21:05.197Z,95.38
2022-12-22T15:23:32.626Z,94.96
2022-12-22T15:25:59.888Z,94.46
2022-12-22T15:28:27.259Z,95.28
2022-12-22T15:30:54.740Z,95.66
2022-12-22T15:33:22.071Z,96.34
2022-12-22T15:35:49.540Z,96.98
2022-12-22T15:38:19.502Z,96.29
2022-12-22T15:40:47.468Z,96.69
2022-12-22T15:43:55.171Z,96.68
2022-12-22T15:46:04.556Z,96.88
2022-12-22T15:48:34.207Z,96.11
2022-12-22T15:51:03.814Z,96.84
2022-12-22T15:53:32.574Z,98.09
2022-12-22T15:56:00.006Z,97.89
2022-12-22T15:58:32.497Z,98.18
2022-12-22T16:01:00.101Z,98.76
2022-12-22T16:03:27.607Z,98.59
2022-12-22T16:05:55.083Z,98.76
2022-12-22T16:08:31.669Z,99.50
2022-12-22T16:10:59.125Z,98.56
2022-12-22T16:13:27.401Z,98.36
2022-12-22T16:15:57.964Z,97.84
2022-12-22T16:18:25.806Z,97.39
2022-12-22T16:20:53.314Z,97.94
2022-12-22T16:23:23.473Z,99.48
2022-12-22T16:25:55.502Z,98.92
2022-12-22T16:28:26.321Z,99.72
2022-12-22T16:30:53.892Z,99.16
2022-12-22T16:33:21.156Z,99.27
2022-12-22T16:35:48.809Z,99.81
2022-12-22T16:38:19.097Z,100.00
2022-12-22T16:40:49.800Z,99.94
2022-12-22T16:46:03.516Z,100.00
2022-12-22T16:48:34.722Z,100.00
2022-12-22T16:51:02.142Z,100.00
2022-12-22T16:53:29.427Z,100.00
2022-12-22T16:55:58.685Z,100.00
2022-12-22T16:58:25.961Z,100.00
2022-12-22T17:00:53.373Z,100.00
2022-12-22T17:03:25.964Z,100.00
2022-12-22T17:05:55.781Z,100.00
2022-12-22T17:08:34.943Z,100.00
2022-12-22T17:11:10.533Z,100.00
2022-12-22T17:13:39.030Z,99.86
2022-12-22T17:16:06.643Z,100.00
2022-12-22T17:18:35.353Z,100.00
2022-12-22T17:21:04.215Z,100.00
2022-12-22T17:23:47.445Z,100.00
2022-12-22T17:26:17.180Z,100.00
2022-12-22T17:28:44.910Z,99.00
2022-12-22T17:31:17.599Z,98.92
2022-12-22T17:33:45.315Z,99.24
2022-12-22T17:36:20.385Z,98.81
2022-12-22T17:38:47.726Z,98.92
2022-12-22T17:41:17.070Z,98.75
2022-12-22T17:43:45.231Z,98.93
2022-12-22T17:46:15.146Z,99.05
2022-12-22T17:48:43.360Z,99.29
2022-12-22T17:51:28.538Z,98.76
2022-12-22T17:53:57.669Z,98.29
2022-12-22T17:56:26.173Z,98.30
2022-12-22T17:58:53.850Z,98.37
2022-12-22T18:01:32.241Z,98.65
2022-12-22T18:04:00.043Z,97.59
2022-12-22T18:06:33.773Z,98.23
2022-12-22T18:09:01.538Z,98.37
2022-12-22T18:11:28.917Z,97.80
2022-12-22T18:13:57.412Z,98.01
2022-12-22T18:16:25.195Z,97.96
2022-12-22T18:18:52.525Z,98.16
2022-12-22T18:21:22.933Z,98.19
2022-12-22T18:23:51.211Z,97.72
2022-12-22T18:26:21.776Z,98.02
2022-12-22T18:28:49.591Z,98.12
2022-12-22T18:31:17.418Z,96.33
2022-12-22T18:33:44.726Z,97.54
2022-12-22T18:36:20.909Z,99.35
2022-12-22T18:38:51.149Z,99.08
2022-12-22T18:41:22.864Z,96.73
2022-12-22T18:43:50.483Z,97.32
2022-12-22T18:46:18.748Z,97.60
2022-12-22T18:48:47.578Z,97.12
2022-12-22T18:51:25.889Z,97.13
2022-12-22T18:53:54.915Z,98.06
2022-12-22T18:56:22.691Z,96.84
2022-12-22T18:58:50.099Z,96.70
2022-12-22T19:01:26.034Z,96.93
2022-12-22T19:03:55.792Z,96.71
2022-12-22T19:06:23.964Z,97.58
2022-12-22T19:08:51.820Z,97.17
2022-12-22T19:11:23.153Z,98.21
2022-12-22T19:13:52.036Z,98.33
2022-12-22T19:16:24.502Z,98.89
2022-12-22T19:18:52.005Z,99.76
2022-12-22T19:21:19.672Z,100.00
2022-12-22T19:23:47.215Z,100.00
2022-12-22T19:26:23.356Z,100.00
2022-12-22T19:28:53.137Z,100.00
2022-12-22T19:31:25.597Z,100.00
2022-12-22T19:33:53.278Z,100.00
2022-12-22T19:36:25.613Z,99.35
2022-12-22T19:39:02.742Z,99.56
2022-12-22T19:41:44.100Z,98.80
2022-12-22T19:44:17.371Z,98.69
2022-12-22T19:46:45.069Z,98.54
2022-12-22T19:49:17.472Z,98.42
2022-12-22T19:51:46.328Z,97.78
2022-12-22T19:54:13.881Z,97.22
2022-12-22T19:56:42.662Z,96.92
2022-12-22T19:59:29.658Z,96.30
2022-12-22T20:02:00.178Z,96.55
2022-12-22T20:04:28.343Z,97.59
2022-12-22T20:06:55.755Z,96.93
2022-12-22T20:09:22.977Z,97.09
2022-12-22T20:11:50.245Z,97.04
2022-12-22T20:14:18.398Z,98.31
2022-12-22T20:16:46.014Z,99.89
2022-12-22T20:19:14.242Z,98.82
2022-12-22T20:21:42.339Z,97.37
2022-12-22T20:24:18.875Z,96.52
2022-12-22T20:26:50.286Z,96.74
2022-12-22T20:29:21.087Z,96.86
2022-12-22T20:31:48.581Z,97.83
2022-12-22T20:34:15.951Z,97.85
2022-12-22T20:36:43.546Z,98.05
2022-12-22T20:39:16.358Z,98.12
2022-12-22T20:41:50.482Z,98.32
2022-12-22T20:44:20.046Z,97.93
2022-12-22T20:46:47.706Z,97.35
2022-12-22T20:49:15.958Z,96.91
2022-12-22T20:51:43.245Z,96.47
2022-12-22T20:54:14.028Z,96.28
2022-12-22T20:56:43.332Z,95.97
2022-12-22T20:59:17.947Z,96.36
2022-12-22T21:01:46.272Z,97.14
2022-12-22T21:04:14.976Z,96.77
2022-12-22T21:06:49.718Z,95.86
2022-12-22T21:09:17.755Z,96.76
2022-12-22T21:11:45.317Z,96.60
2022-12-22T21:14:13.317Z,97.17
2022-12-22T21:16:41.300Z,97.10
2022-12-22T21:19:09.925Z,96.87
2022-12-22T21:21:37.385Z,95.99
2022-12-22T21:24:05.569Z,94.13
2022-12-22T21:26:36.190Z,93.86
2022-12-22T21:29:06.698Z,94.45
2022-12-22T21:31:33.955Z,95.58
2022-12-22T21:34:01.233Z,95.58
2022-12-22T21:36:31.573Z,94.69
2022-12-22T21:39:01.770Z,94.61
2022-12-22T21:41:47.471Z,94.87
2022-12-22T21:44:14.801Z,92.69
2022-12-22T21:46:43.761Z,93.90
2022-12-22T21:49:21.192Z,93.62
2022-12-22T21:51:49.767Z,92.93
2022-12-22T21:54:18.851Z,92.69
2022-12-22T21:56:46.641Z,93.77
2022-12-22T21:59:14.147Z,92.45
2022-12-22T22:01:41.757Z,91.31
2022-12-22T22:04:09.492Z,91.70
2022-12-22T22:06:37.049Z,91.86
2022-12-22T22:09:05.775Z,92.52
2022-12-22T22:11:33.360Z,91.69
2022-12-22T22:14:00.762Z,90.97
2022-12-22T22:16:28.146Z,90.51
2022-12-22T22:18:55.464Z,89.96
2022-12-22T22:21:22.688Z,90.85
2022-12-22T22:23:50.228Z,90.17
2022-12-22T22:26:17.621Z,90.21
2022-12-22T22:28:44.907Z,91.26
2022-12-22T22:31:12.509Z,87.00
2022-12-22T22:33:39.870Z,87.75
2022-12-22T22:36:08.359Z,88.20
2022-12-22T22:38:36.032Z,88.41
2022-12-22T22:41:03.440Z,89.75
2022-12-22T22:43:30.780Z,89.02
2022-12-22T22:45:58.184Z,88.68
2022-12-22T22:48:25.542Z,89.13
2022-12-22T22:50:52.961Z,90.00
2022-12-22T22:53:20.496Z,89.91
2022-12-22T22:55:47.987Z,89.68
2022-12-22T22:58:15.275Z,89.55
2022-12-22T23:00:42.488Z,89.48
2022-12-22T23:03:10.013Z,88.81
2022-12-22T23:05:37.340Z,88.17
2022-12-22T23:08:04.864Z,87.47
2022-12-22T23:10:37.719Z,89.27
2022-12-22T23:13:08.485Z,89.44
2022-12-22T23:15:35.774Z,91.46
2022-12-22T23:18:03.229Z,92.02
2022-12-22T23:20:30.580Z,91.52
2022-12-22T23:22:57.855Z,90.52
2022-12-22T23:25:25.177Z,90.58
2022-12-22T23:27:52.637Z,90.37
2022-12-22T23:30:19.949Z,90.05
2022-12-22T23:32:47.476Z,89.25
2022-12-22T23:35:14.820Z,88.13
2022-12-22T23:37:42.172Z,88.00
2022-12-22T23:40:50.953Z,86.45
2022-12-22T23:42:57.401Z,86.37
2022-12-22T23:45:24.821Z,87.43
2022-12-22T23:47:52.180Z,87.44
2022-12-22T23:50:19.493Z,88.13
2022-12-22T23:52:49.645Z,88.13
2022-12-22T23:55:19.494Z,87.93
2022-12-22T23:57:47.032Z,88.47
